createdAt,value
2023-03-23T00:00:03.217Z,12.80
2023-03-23T00:01:03.203Z,12.80
2023-03-23T00:02:03.237Z,12.80
2023-03-23T00:03:03.238Z,12.80
2023-03-23T00:04:03.478Z,12.80
2023-03-23T00:05:03.536Z,12.80
2023-03-23T00:06:03.531Z,12.80
2023-03-23T00:07:03.396Z,12.80
2023-03-23T00:08:03.418Z,12.80
2023-03-23T00:09:03.459Z,12.80
2023-03-23T00:10:03.477Z,12.80
2023-03-23T00:11:03.460Z,12.90
2023-03-23T00:12:03.549Z,12.90
2023-03-23T00:13:03.548Z,12.90
2023-03-23T00:14:03.464Z,12.90
2023-03-23T00:15:03.423Z,12.90
2023-03-23T00:16:04.237Z,12.90
2023-03-23T00:17:03.548Z,12.90
2023-03-23T00:18:03.547Z,12.90
2023-03-23T00:19:03.513Z,12.90
2023-03-23T00:20:03.408Z,12.90
2023-03-23T00:21:03.413Z,12.90
2023-03-23T00:22:03.553Z,12.90
2023-03-23T00:23:03.536Z,12.90
2023-03-23T00:24:03.499Z,12.90
2023-03-23T00:25:03.550Z,12.90
2023-03-23T00:26:03.567Z,12.90
2023-03-23T00:27:03.560Z,12.90
2023-03-23T00:28:03.473Z,12.90
2023-03-23T00:29:03.544Z,12.90
2023-03-23T00:30:03.616Z,12.90
2023-03-23T00:31:03.515Z,12.90
2023-03-23T00:32:03.452Z,12.90
2023-03-23T00:33:03.423Z,12.90
2023-03-23T00:34:03.460Z,12.90
2023-03-23T00:35:03.551Z,12.90
2023-03-23T00:36:03.460Z,12.90
2023-03-23T00:37:03.478Z,12.90
2023-03-23T00:38:03.502Z,12.90
2023-03-23T00:39:03.463Z,12.90
2023-03-23T00:40:03.394Z,12.90
2023-03-23T00:41:03.509Z,12.90
2023-03-23T00:42:03.486Z,12.90
2023-03-23T00:43:03.392Z,12.90
2023-03-23T00:44:03.320Z,12.90
2023-03-23T00:45:03.403Z,12.90
2023-03-23T00:46:03.292Z,12.90
2023-03-23T00:47:03.299Z,12.80
2023-03-23T00:48:03.421Z,12.80
2023-03-23T00:49:03.310Z,12.80
2023-03-23T00:50:03.322Z,12.80
2023-03-23T00:51:03.373Z,12.80
2023-03-23T00:52:03.410Z,12.80
2023-03-23T00:53:03.381Z,12.80
2023-03-23T00:54:03.406Z,12.80
2023-03-23T00:55:03.405Z,12.80
2023-03-23T00:56:03.321Z,12.80
2023-03-23T00:57:03.367Z,12.80
2023-03-23T00:58:03.340Z,12.80
2023-03-23T00:59:03.279Z,12.80
2023-03-23T01:00:05.674Z,12.80
2023-03-23T01:01:03.156Z,12.80
2023-03-23T01:02:03.288Z,12.80
2023-03-23T01:03:03.231Z,12.80
2023-03-23T01:04:03.189Z,12.80
2023-03-23T01:05:03.236Z,12.80
2023-03-23T01:06:03.288Z,12.80
2023-03-23T01:07:03.171Z,12.80
2023-03-23T01:08:03.280Z,12.80
2023-03-23T01:09:03.331Z,12.80
2023-03-23T01:10:03.514Z,12.80
2023-03-23T01:11:02.656Z,12.80
2023-03-23T01:12:02.718Z,12.80
2023-03-23T01:13:02.737Z,12.80
2023-03-23T01:14:02.760Z,12.80
2023-03-23T01:15:02.795Z,12.80
2023-03-23T01:16:03.093Z,12.80
2023-03-23T01:17:02.954Z,12.80
2023-03-23T01:18:02.856Z,12.80
2023-03-23T01:19:02.975Z,12.80
2023-03-23T01:20:02.930Z,12.80
2023-03-23T01:21:02.882Z,12.80
2023-03-23T01:22:02.783Z,12.80
2023-03-23T01:23:02.827Z,12.80
2023-03-23T01:24:02.755Z,12.80
2023-03-23T01:25:02.751Z,12.80
2023-03-23T01:26:02.710Z,12.80
2023-03-23T01:27:02.779Z,12.80
2023-03-23T01:28:02.771Z,12.80
2023-03-23T01:29:02.848Z,12.80
2023-03-23T01:30:02.843Z,12.80
2023-03-23T01:31:02.746Z,12.70
2023-03-23T01:32:02.648Z,12.70
2023-03-23T01:33:03.592Z,12.70
2023-03-23T01:34:02.668Z,12.70
2023-03-23T01:35:02.637Z,12.70
2023-03-23T01:36:03.637Z,12.70
2023-03-23T01:37:03.528Z,12.70
2023-03-23T01:38:03.506Z,12.70
2023-03-23T01:39:03.471Z,12.70
2023-03-23T01:40:03.619Z,12.70
2023-03-23T01:41:03.537Z,12.70
2023-03-23T01:42:03.478Z,12.70
2023-03-23T01:43:03.550Z,12.70
2023-03-23T01:44:03.578Z,12.70
2023-03-23T01:45:03.512Z,12.60
2023-03-23T01:46:03.520Z,12.60
2023-03-23T01:47:03.478Z,12.60
2023-03-23T01:48:03.404Z,12.70
2023-03-23T01:49:03.459Z,12.70
2023-03-23T01:50:03.401Z,12.70
2023-03-23T01:51:03.372Z,12.70
2023-03-23T01:52:03.292Z,12.70
2023-03-23T01:53:03.417Z,12.70
2023-03-23T01:54:03.414Z,12.70
2023-03-23T01:55:03.461Z,12.70
2023-03-23T01:56:03.388Z,12.70
2023-03-23T01:57:03.270Z,12.70
2023-03-23T01:58:03.287Z,12.70
2023-03-23T01:59:03.330Z,12.70
2023-03-23T02:00:03.282Z,12.70
2023-03-23T02:01:03.401Z,12.70
2023-03-23T02:02:03.359Z,12.70
2023-03-23T02:03:03.305Z,12.70
2023-03-23T02:04:03.356Z,12.70
2023-03-23T02:05:03.264Z,12.70
2023-03-23T02:06:03.229Z,12.70
2023-03-23T02:07:03.262Z,12.70
2023-03-23T02:08:03.312Z,12.80
2023-03-23T02:09:10.490Z,12.80
2023-03-23T02:10:03.330Z,12.80
2023-03-23T02:11:03.226Z,12.80
2023-03-23T02:12:03.280Z,12.80
2023-03-23T02:13:03.166Z,12.80
2023-03-23T02:14:03.204Z,12.80
2023-03-23T02:15:03.080Z,12.80
2023-03-23T02:16:03.126Z,12.90
2023-03-23T02:17:03.167Z,12.90
2023-03-23T02:18:03.172Z,12.90
2023-03-23T02:19:03.122Z,12.90
2023-03-23T02:20:03.075Z,12.90
2023-03-23T02:21:03.047Z,12.90
2023-03-23T02:22:03.067Z,12.90
2023-03-23T02:23:03.008Z,12.90
2023-03-23T02:24:02.961Z,12.90
2023-03-23T02:25:03.025Z,12.90
2023-03-23T02:26:02.977Z,12.90
2023-03-23T02:27:03.056Z,12.90
2023-03-23T02:28:03.015Z,12.90
2023-03-23T02:29:03.130Z,12.90
2023-03-23T02:30:03.075Z,12.90
2023-03-23T02:31:03.016Z,12.90
2023-03-23T02:32:03.053Z,12.90
2023-03-23T02:33:03.199Z,12.90
2023-03-23T02:34:03.214Z,12.90
2023-03-23T02:35:03.129Z,12.90
2023-03-23T02:36:03.062Z,12.90
2023-03-23T02:37:03.027Z,12.90
2023-03-23T02:38:02.952Z,12.90
2023-03-23T02:39:02.958Z,12.90
2023-03-23T02:40:02.976Z,12.80
2023-03-23T02:41:02.845Z,12.80
2023-03-23T02:42:02.987Z,12.80
2023-03-23T02:43:02.883Z,12.80
2023-03-23T02:44:02.889Z,12.80
2023-03-23T02:45:03.005Z,12.80
2023-03-23T02:48:02.950Z,12.80
2023-03-23T02:49:02.975Z,12.80
2023-03-23T02:50:02.903Z,12.80
2023-03-23T02:51:02.869Z,12.80
2023-03-23T02:52:02.850Z,12.80
2023-03-23T02:53:02.667Z,12.80
2023-03-23T02:54:02.781Z,12.70
2023-03-23T02:55:02.714Z,12.70
2023-03-23T02:56:02.748Z,12.80
2023-03-23T02:57:02.746Z,12.70
2023-03-23T02:58:02.747Z,12.70
2023-03-23T02:59:02.759Z,12.70
2023-03-23T03:00:02.776Z,12.70
2023-03-23T03:01:02.692Z,12.70
2023-03-23T03:02:02.708Z,12.70
2023-03-23T03:03:02.667Z,12.70
2023-03-23T03:04:03.546Z,12.70
2023-03-23T03:05:03.553Z,12.70
2023-03-23T03:06:02.691Z,12.70
2023-03-23T03:07:03.596Z,12.70
2023-03-23T03:08:03.526Z,12.70
2023-03-23T03:09:03.583Z,12.70
2023-03-23T03:10:03.568Z,12.70
2023-03-23T03:11:03.488Z,12.70
2023-03-23T03:12:03.484Z,12.70
2023-03-23T03:13:03.384Z,12.70
2023-03-23T03:14:03.364Z,12.70
2023-03-23T03:15:03.484Z,12.70
2023-03-23T03:16:03.434Z,12.70
2023-03-23T03:17:03.436Z,12.70
2023-03-23T03:18:03.457Z,12.70
2023-03-23T03:19:03.403Z,12.70
2023-03-23T03:20:03.392Z,12.70
2023-03-23T03:21:03.296Z,12.60
2023-03-23T03:22:03.328Z,12.60
2023-03-23T03:23:03.416Z,12.60
2023-03-23T03:24:03.346Z,12.60
2023-03-23T03:25:17.955Z,12.60
2023-03-23T03:26:03.337Z,12.60
2023-03-23T03:27:03.211Z,12.60
2023-03-23T03:28:04.212Z,12.60
2023-03-23T03:29:03.238Z,12.60
2023-03-23T03:30:03.301Z,12.60
2023-03-23T03:31:03.216Z,12.60
2023-03-23T03:32:03.229Z,12.60
2023-03-23T03:33:03.106Z,12.60
2023-03-23T03:34:03.185Z,12.60
2023-03-23T03:35:03.146Z,12.60
2023-03-23T03:36:03.100Z,12.60
2023-03-23T03:37:03.023Z,12.60
2023-03-23T03:38:03.065Z,12.50
2023-03-23T03:39:03.091Z,12.50
2023-03-23T03:40:03.064Z,12.50
2023-03-23T03:41:02.974Z,12.50
2023-03-23T03:42:03.005Z,12.50
2023-03-23T03:43:02.944Z,12.50
2023-03-23T03:44:03.016Z,12.50
2023-03-23T03:45:03.053Z,12.50
2023-03-23T03:46:03.035Z,12.50
2023-03-23T03:47:02.919Z,12.50
2023-03-23T03:48:02.949Z,12.50
2023-03-23T03:49:02.956Z,12.50
2023-03-23T03:50:02.927Z,12.50
2023-03-23T03:51:02.866Z,12.50
2023-03-23T03:52:02.928Z,12.50
2023-03-23T03:53:02.911Z,12.50
2023-03-23T03:54:02.911Z,12.50
2023-03-23T03:55:03.023Z,12.50
2023-03-23T03:56:03.008Z,12.50
2023-03-23T03:57:02.912Z,12.50
2023-03-23T03:58:02.979Z,12.50
2023-03-23T03:59:21.792Z,12.50
2023-03-23T04:00:02.868Z,12.50
2023-03-23T04:01:02.759Z,12.50
2023-03-23T04:02:02.807Z,12.50
2023-03-23T04:03:02.848Z,12.50
2023-03-23T04:04:02.756Z,12.50
2023-03-23T04:05:02.837Z,12.40
2023-03-23T04:06:02.738Z,12.40
2023-03-23T04:07:02.784Z,12.40
2023-03-23T04:08:09.455Z,12.40
2023-03-23T04:09:07.728Z,12.40
2023-03-23T04:10:02.654Z,12.40
2023-03-23T04:11:02.719Z,12.40
2023-03-23T04:12:02.783Z,12.40
2023-03-23T04:13:02.734Z,12.40
2023-03-23T04:14:02.769Z,12.40
2023-03-23T04:15:05.939Z,12.40
2023-03-23T04:16:07.400Z,12.40
2023-03-23T04:17:02.786Z,12.40
2023-03-23T04:18:02.710Z,12.40
2023-03-23T04:19:02.846Z,12.40
2023-03-23T04:20:02.722Z,12.40
2023-03-23T04:21:04.437Z,12.40
2023-03-23T04:22:03.598Z,12.40
2023-03-23T04:23:03.622Z,12.40
2023-03-23T04:24:03.540Z,12.40
2023-03-23T04:25:02.661Z,12.40
2023-03-23T04:26:03.668Z,12.40
2023-03-23T04:27:03.548Z,12.40
2023-03-23T04:28:03.580Z,12.40
2023-03-23T04:29:03.545Z,12.40
2023-03-23T04:30:03.616Z,12.40
2023-03-23T04:31:02.672Z,12.40
2023-03-23T04:32:02.666Z,12.40
2023-03-23T04:33:02.826Z,12.40
2023-03-23T04:34:02.773Z,12.40
2023-03-23T04:35:12.623Z,12.40
2023-03-23T04:36:02.886Z,12.40
2023-03-23T04:37:02.935Z,12.40
2023-03-23T04:38:02.827Z,12.40
2023-03-23T04:39:02.844Z,12.40
2023-03-23T04:40:02.803Z,12.40
2023-03-23T04:41:02.684Z,12.40
2023-03-23T04:42:02.706Z,12.40
2023-03-23T04:43:02.800Z,12.40
2023-03-23T04:44:02.781Z,12.40
2023-03-23T04:45:02.731Z,12.40
2023-03-23T04:46:02.684Z,12.40
2023-03-23T04:47:02.600Z,12.40
2023-03-23T04:48:02.680Z,12.40
2023-03-23T04:49:03.566Z,12.40
2023-03-23T04:50:03.590Z,12.40
2023-03-23T04:51:02.669Z,12.40
2023-03-23T04:52:02.638Z,12.40
2023-03-23T04:53:02.645Z,12.40
2023-03-23T04:54:02.703Z,12.40
2023-03-23T04:55:03.638Z,12.40
2023-03-23T04:56:03.491Z,12.30
2023-03-23T04:57:03.506Z,12.40
2023-03-23T04:58:03.468Z,12.40
2023-03-23T04:59:03.505Z,12.40
2023-03-23T05:00:03.594Z,12.40
2023-03-23T05:01:03.549Z,12.40
2023-03-23T05:02:13.800Z,12.40
2023-03-23T05:03:03.541Z,12.40
2023-03-23T05:04:03.580Z,12.40
2023-03-23T05:05:03.500Z,12.40
2023-03-23T05:06:03.564Z,12.40
2023-03-23T05:07:03.541Z,12.40
2023-03-23T05:08:03.479Z,12.40
2023-03-23T05:09:03.553Z,12.40
2023-03-23T05:10:03.463Z,12.40
2023-03-23T05:11:03.440Z,12.40
2023-03-23T05:12:03.435Z,12.40
2023-03-23T05:13:03.452Z,12.40
2023-03-23T05:14:03.359Z,12.40
2023-03-23T05:15:03.493Z,12.40
2023-03-23T05:16:03.425Z,12.40
2023-03-23T05:17:03.545Z,12.40
2023-03-23T05:18:03.516Z,12.40
2023-03-23T05:19:03.406Z,12.40
2023-03-23T05:20:03.449Z,12.40
2023-03-23T05:21:03.356Z,12.40
2023-03-23T05:22:03.377Z,12.40
2023-03-23T05:23:03.346Z,12.40
2023-03-23T05:24:03.296Z,12.40
2023-03-23T05:25:03.537Z,12.40
2023-03-23T05:26:03.478Z,12.40
2023-03-23T05:27:03.472Z,12.40
2023-03-23T05:28:03.421Z,12.40
2023-03-23T05:29:03.333Z,12.40
2023-03-23T05:30:03.394Z,12.40
2023-03-23T05:31:03.295Z,12.40
2023-03-23T05:32:03.390Z,12.40
2023-03-23T05:33:03.372Z,12.40
2023-03-23T05:34:03.360Z,12.40
2023-03-23T05:35:03.500Z,12.40
2023-03-23T05:36:03.547Z,12.40
2023-03-23T05:37:03.500Z,12.40
2023-03-23T05:38:03.445Z,12.40
2023-03-23T05:39:03.502Z,12.40
2023-03-23T05:40:03.576Z,12.40
2023-03-23T05:41:03.510Z,12.40
2023-03-23T05:42:03.577Z,12.40
2023-03-23T05:43:03.519Z,12.40
2023-03-23T05:44:03.427Z,12.40
2023-03-23T05:45:03.440Z,12.40
2023-03-23T05:46:03.377Z,12.40
2023-03-23T05:47:03.349Z,12.40
2023-03-23T05:48:03.410Z,12.40
2023-03-23T05:49:03.412Z,12.40
2023-03-23T05:50:03.362Z,12.40
2023-03-23T05:51:03.504Z,12.40
2023-03-23T05:52:03.452Z,12.40
2023-03-23T05:53:03.339Z,12.40
2023-03-23T05:54:03.447Z,12.40
2023-03-23T05:55:03.347Z,12.40
2023-03-23T05:56:03.271Z,12.40
2023-03-23T05:57:03.213Z,12.40
2023-03-23T05:58:03.230Z,12.40
2023-03-23T05:59:03.283Z,12.50
2023-03-23T06:00:03.168Z,12.50
2023-03-23T06:01:03.224Z,12.50
2023-03-23T06:02:03.200Z,12.50
2023-03-23T06:03:03.245Z,12.50
2023-03-23T06:04:03.266Z,12.50
2023-03-23T06:05:03.272Z,12.50
2023-03-23T06:06:03.274Z,12.60
2023-03-23T06:07:03.207Z,12.60
2023-03-23T06:08:03.137Z,12.60
2023-03-23T06:09:03.208Z,12.60
2023-03-23T06:10:03.338Z,12.60
2023-03-23T06:11:03.385Z,12.60
2023-03-23T06:12:03.330Z,12.60
2023-03-23T06:13:03.429Z,12.60
2023-03-23T06:14:03.377Z,12.60
2023-03-23T06:15:03.554Z,12.60
2023-03-23T06:16:03.627Z,12.60
2023-03-23T06:17:03.616Z,12.70
2023-03-23T06:18:03.645Z,12.60
2023-03-23T06:19:02.654Z,12.70
2023-03-23T06:20:02.765Z,12.70
2023-03-23T06:21:02.712Z,12.70
2023-03-23T06:22:02.722Z,12.70
2023-03-23T06:23:02.861Z,12.70
2023-03-23T06:24:02.805Z,12.70
2023-03-23T06:25:02.963Z,12.70
2023-03-23T06:26:04.332Z,12.70
2023-03-23T06:27:02.879Z,12.70
2023-03-23T06:28:02.972Z,12.70
2023-03-23T06:29:03.033Z,12.70
2023-03-23T06:30:03.077Z,12.70
2023-03-23T06:31:03.041Z,12.70
2023-03-23T06:32:03.001Z,12.70
2023-03-23T06:33:03.046Z,12.70
2023-03-23T06:34:03.053Z,12.70
2023-03-23T06:35:03.046Z,12.70
2023-03-23T06:36:02.993Z,12.70
2023-03-23T06:37:02.894Z,12.70
2023-03-23T06:38:02.936Z,12.70
2023-03-23T06:39:03.109Z,12.70
2023-03-23T06:40:02.976Z,12.70
2023-03-23T06:41:02.945Z,12.70
2023-03-23T06:42:03.035Z,12.70
2023-03-23T06:43:02.848Z,12.70
2023-03-23T06:44:02.992Z,12.70
2023-03-23T06:45:03.010Z,12.70
2023-03-23T06:46:03.026Z,12.70
2023-03-23T06:47:02.975Z,12.70
2023-03-23T06:48:03.066Z,12.70
2023-03-23T06:49:03.054Z,12.60
2023-03-23T06:50:03.038Z,12.60
2023-03-23T06:51:03.083Z,12.60
2023-03-23T06:52:03.087Z,12.60
2023-03-23T06:53:03.150Z,12.60
2023-03-23T06:54:03.065Z,12.60
2023-03-23T06:55:02.983Z,12.60
2023-03-23T06:56:02.947Z,12.60
2023-03-23T06:57:03.111Z,12.60
2023-03-23T06:58:02.998Z,12.60
2023-03-23T06:59:03.024Z,12.60
2023-03-23T07:00:02.975Z,12.60
2023-03-23T07:01:02.900Z,12.60
2023-03-23T07:02:02.890Z,12.60
2023-03-23T07:03:02.842Z,12.50
2023-03-23T07:04:02.970Z,12.60
2023-03-23T07:05:02.959Z,12.50
2023-03-23T07:06:03.013Z,12.50
2023-03-23T07:07:03.028Z,12.50
2023-03-23T07:08:03.113Z,12.50
2023-03-23T07:09:03.112Z,12.50
2023-03-23T07:10:03.019Z,12.50
2023-03-23T07:11:03.102Z,12.50
2023-03-23T07:12:03.008Z,12.50
2023-03-23T07:13:02.996Z,12.50
2023-03-23T07:14:03.051Z,12.50
2023-03-23T07:15:03.104Z,12.50
2023-03-23T07:16:03.114Z,12.50
2023-03-23T07:17:03.042Z,12.50
2023-03-23T07:18:02.955Z,12.60
2023-03-23T07:19:02.890Z,12.60
2023-03-23T07:20:02.881Z,12.60
2023-03-23T07:21:02.931Z,12.60
2023-03-23T07:22:03.007Z,12.60
2023-03-23T07:23:02.974Z,12.60
2023-03-23T07:24:02.811Z,12.60
2023-03-23T07:25:03.027Z,12.60
2023-03-23T07:26:02.891Z,12.60
2023-03-23T07:27:02.813Z,12.60
2023-03-23T07:28:03.002Z,12.60
2023-03-23T07:29:02.937Z,12.60
2023-03-23T07:30:02.864Z,12.60
2023-03-23T07:31:02.779Z,12.60
2023-03-23T07:32:02.839Z,12.60
2023-03-23T07:33:02.743Z,12.60
2023-03-23T07:34:02.658Z,12.60
2023-03-23T07:35:02.719Z,12.60
2023-03-23T07:36:02.896Z,12.60
2023-03-23T07:37:02.763Z,12.60
2023-03-23T07:38:02.883Z,12.60
2023-03-23T07:39:02.867Z,12.60
2023-03-23T07:40:02.837Z,12.60
2023-03-23T07:41:03.037Z,12.60
2023-03-23T07:42:03.069Z,12.60
2023-03-23T07:43:03.209Z,12.60
2023-03-23T07:44:03.230Z,12.60
2023-03-23T07:45:03.181Z,12.60
2023-03-23T07:46:03.150Z,12.60
2023-03-23T07:47:03.105Z,12.60
2023-03-23T07:48:05.259Z,12.60
2023-03-23T07:49:03.272Z,12.60
2023-03-23T07:50:03.332Z,12.60
2023-03-23T07:51:03.050Z,12.60
2023-03-23T07:52:03.146Z,12.70
2023-03-23T07:53:03.161Z,12.70
2023-03-23T07:54:04.112Z,12.70
2023-03-23T07:55:03.288Z,12.70
2023-03-23T07:56:03.290Z,12.70
2023-03-23T07:57:03.377Z,12.70
2023-03-23T07:58:03.345Z,12.70
2023-03-23T07:59:03.224Z,12.70
2023-03-23T08:00:03.196Z,12.70
2023-03-23T08:01:03.095Z,12.70
2023-03-23T08:02:03.139Z,12.70
2023-03-23T08:03:03.034Z,12.70
2023-03-23T08:04:03.139Z,12.70
2023-03-23T08:05:03.065Z,12.70
2023-03-23T08:06:02.970Z,12.70
2023-03-23T08:07:02.920Z,12.70
2023-03-23T08:08:03.090Z,12.70
2023-03-23T08:09:03.138Z,12.70
2023-03-23T08:10:03.216Z,12.70
2023-03-23T08:11:03.183Z,12.70
2023-03-23T08:12:03.137Z,12.70
2023-03-23T08:13:03.309Z,12.80
2023-03-23T08:14:03.169Z,12.80
2023-03-23T08:15:03.028Z,12.80
2023-03-23T08:16:03.199Z,12.80
2023-03-23T08:17:03.246Z,12.80
2023-03-23T08:18:03.137Z,12.80
2023-03-23T08:19:08.401Z,12.80
2023-03-23T08:20:03.174Z,12.80
2023-03-23T08:21:03.203Z,12.90
2023-03-23T08:22:03.152Z,12.90
2023-03-23T08:23:03.222Z,12.90
2023-03-23T08:24:03.073Z,12.90
2023-03-23T08:25:03.020Z,12.90
2023-03-23T08:26:03.103Z,12.90
2023-03-23T08:27:03.116Z,13.00
2023-03-23T08:28:02.957Z,13.00
2023-03-23T08:29:02.981Z,13.00
2023-03-23T08:30:03.263Z,13.00
2023-03-23T08:31:03.190Z,13.10
2023-03-23T08:32:03.189Z,13.10
2023-03-23T08:33:03.208Z,13.10
2023-03-23T08:34:03.328Z,13.10
2023-03-23T08:35:03.299Z,13.10
2023-03-23T08:36:03.349Z,13.10
2023-03-23T08:37:03.227Z,13.10
2023-03-23T08:38:03.231Z,13.20
2023-03-23T08:39:03.200Z,13.20
2023-03-23T08:40:03.358Z,13.20
2023-03-23T08:41:03.307Z,13.20
2023-03-23T08:42:03.295Z,13.20
2023-03-23T08:43:03.301Z,13.30
2023-03-23T08:44:03.317Z,13.30
2023-03-23T08:45:03.361Z,13.30
2023-03-23T08:46:03.505Z,13.40
2023-03-23T08:47:03.573Z,13.40
2023-03-23T08:48:03.577Z,13.40
2023-03-23T08:49:02.692Z,13.40
2023-03-23T08:50:02.668Z,13.50
2023-03-23T08:51:02.722Z,13.50
2023-03-23T08:52:02.751Z,13.50
2023-03-23T08:53:02.815Z,13.50
2023-03-23T08:54:02.780Z,13.50
2023-03-23T08:55:02.874Z,13.60
2023-03-23T08:56:02.882Z,13.60
2023-03-23T08:57:02.817Z,13.60
2023-03-23T08:58:02.846Z,13.60
2023-03-23T08:59:02.892Z,13.70
2023-03-23T09:00:02.805Z,13.70
2023-03-23T09:01:02.846Z,13.70
2023-03-23T09:02:02.769Z,13.70
2023-03-23T09:03:02.750Z,13.70
2023-03-23T09:04:02.821Z,13.70
2023-03-23T09:05:02.832Z,13.70
2023-03-23T09:06:02.668Z,13.80
2023-03-23T09:07:02.741Z,13.80
2023-03-23T09:08:02.723Z,13.80
2023-03-23T09:09:02.727Z,13.80
2023-03-23T09:10:02.639Z,13.80
2023-03-23T09:11:02.779Z,13.90
2023-03-23T09:12:02.674Z,13.90
2023-03-23T09:13:02.693Z,13.90
2023-03-23T09:14:02.710Z,14.00
2023-03-23T09:15:02.726Z,14.00
2023-03-23T09:16:02.866Z,14.10
2023-03-23T09:17:02.835Z,14.10
2023-03-23T09:18:02.916Z,14.20
2023-03-23T09:19:02.759Z,14.20
2023-03-23T09:20:02.831Z,14.30
2023-03-23T09:21:02.801Z,14.30
2023-03-23T09:22:02.772Z,14.30
2023-03-23T09:23:02.684Z,14.40
2023-03-23T09:24:02.776Z,14.40
2023-03-23T09:25:02.765Z,14.40
2023-03-23T09:26:02.848Z,14.50
2023-03-23T09:27:02.782Z,14.50
2023-03-23T09:28:02.829Z,14.50
2023-03-23T09:29:02.769Z,14.50
2023-03-23T09:30:02.757Z,14.50
2023-03-23T09:31:02.812Z,14.50
2023-03-23T09:32:02.905Z,14.50
2023-03-23T09:33:02.870Z,14.50
2023-03-23T09:34:02.763Z,14.50
2023-03-23T09:35:02.985Z,14.50
2023-03-23T09:36:02.983Z,14.60
2023-03-23T09:37:03.188Z,14.60
2023-03-23T09:38:03.297Z,14.60
2023-03-23T09:39:03.191Z,14.60
2023-03-23T09:40:06.639Z,14.70
2023-03-23T09:41:03.127Z,14.70
2023-03-23T09:42:03.041Z,14.70
2023-03-23T09:43:02.977Z,14.70
2023-03-23T09:44:03.166Z,14.70
2023-03-23T09:45:03.208Z,14.80
2023-03-23T09:46:03.088Z,14.80
2023-03-23T09:47:03.133Z,14.80
2023-03-23T09:48:03.115Z,14.80
2023-03-23T09:49:03.156Z,14.80
2023-03-23T09:50:03.126Z,14.90
2023-03-23T09:51:03.009Z,14.90
2023-03-23T09:52:03.097Z,14.90
2023-03-23T09:53:03.088Z,14.90
2023-03-23T09:54:03.142Z,14.90
2023-03-23T09:55:03.137Z,15.00
2023-03-23T09:56:03.035Z,15.00
2023-03-23T09:57:03.018Z,15.00
2023-03-23T09:58:03.060Z,15.10
2023-03-23T09:59:03.130Z,15.10
2023-03-23T10:00:03.145Z,15.20
2023-03-23T10:01:03.173Z,15.20
2023-03-23T10:02:03.175Z,15.20
2023-03-23T10:03:03.075Z,15.30
2023-03-23T10:04:03.140Z,15.30
2023-03-23T10:05:03.135Z,15.30
2023-03-23T10:06:03.117Z,15.30
2023-03-23T10:07:03.076Z,15.30
2023-03-23T10:08:03.193Z,15.30
2023-03-23T10:09:03.053Z,15.20
2023-03-23T10:10:03.125Z,15.20
2023-03-23T10:11:03.011Z,15.20
2023-03-23T10:12:03.128Z,15.10
2023-03-23T10:13:03.173Z,15.10
2023-03-23T10:14:03.109Z,15.10
2023-03-23T10:15:03.261Z,15.00
2023-03-23T10:16:03.309Z,15.00
2023-03-23T10:17:03.414Z,15.00
2023-03-23T10:18:03.416Z,15.00
2023-03-23T10:19:03.354Z,14.90
2023-03-23T10:20:03.445Z,14.90
2023-03-23T10:21:03.454Z,14.90
2023-03-23T10:22:03.354Z,14.90
2023-03-23T10:23:03.378Z,14.90
2023-03-23T10:24:03.407Z,14.80
2023-03-23T10:25:03.381Z,14.80
2023-03-23T10:26:03.505Z,14.80
2023-03-23T10:27:03.573Z,14.80
2023-03-23T10:28:03.493Z,14.80
2023-03-23T10:29:03.461Z,14.70
2023-03-23T10:30:03.589Z,14.70
2023-03-23T10:31:02.637Z,14.60
2023-03-23T10:32:02.660Z,14.60
2023-03-23T10:33:02.764Z,14.60
2023-03-23T10:34:02.817Z,14.60
2023-03-23T10:35:02.951Z,14.60
2023-03-23T10:36:02.900Z,14.60
2023-03-23T10:37:02.793Z,14.50
2023-03-23T10:38:02.842Z,14.50
2023-03-23T10:39:03.048Z,14.50
2023-03-23T10:40:03.009Z,14.50
2023-03-23T10:41:02.981Z,14.50
2023-03-23T10:42:03.054Z,14.50
2023-03-23T10:43:03.103Z,14.50
2023-03-23T10:44:03.018Z,14.50
2023-03-23T10:45:02.934Z,14.50
2023-03-23T10:46:03.204Z,14.50
2023-03-23T10:47:02.966Z,14.50
2023-03-23T10:48:03.016Z,14.50
2023-03-23T10:49:03.057Z,14.50
2023-03-23T10:50:03.056Z,14.40
2023-03-23T10:51:03.130Z,14.50
2023-03-23T10:52:03.092Z,14.40
2023-03-23T10:53:03.879Z,14.40
2023-03-23T10:54:03.266Z,14.40
2023-03-23T10:55:03.109Z,14.40
2023-03-23T10:56:03.109Z,14.40
2023-03-23T10:57:03.965Z,14.40
2023-03-23T10:58:03.196Z,14.40
2023-03-23T10:59:03.205Z,14.40
2023-03-23T11:00:03.257Z,14.40
2023-03-23T11:01:03.280Z,14.40
2023-03-23T11:02:03.283Z,14.40
2023-03-23T11:03:04.605Z,14.40
2023-03-23T11:04:03.387Z,14.40
2023-03-23T11:05:09.355Z,14.40
2023-03-23T11:06:03.295Z,14.40
2023-03-23T11:07:03.286Z,14.40
2023-03-23T11:08:03.232Z,14.40
2023-03-23T11:09:03.299Z,14.40
2023-03-23T11:10:03.301Z,14.40
2023-03-23T11:11:03.266Z,14.50
2023-03-23T11:12:03.398Z,14.50
2023-03-23T11:13:03.386Z,14.50
2023-03-23T11:14:03.272Z,14.50
2023-03-23T11:15:03.355Z,14.50
2023-03-23T11:16:03.438Z,14.50
2023-03-23T11:17:10.424Z,14.50
2023-03-23T11:18:03.500Z,14.50
2023-03-23T11:19:03.568Z,14.50
2023-03-23T11:20:03.607Z,14.50
2023-03-23T11:21:02.680Z,14.40
2023-03-23T11:22:02.684Z,14.40
2023-03-23T11:23:02.661Z,14.40
2023-03-23T11:24:09.477Z,14.40
2023-03-23T11:25:02.796Z,14.40
2023-03-23T11:26:02.865Z,14.40
2023-03-23T11:27:02.890Z,14.40
2023-03-23T11:28:02.856Z,14.40
2023-03-23T11:29:02.924Z,14.40
2023-03-23T11:30:02.856Z,14.40
2023-03-23T11:31:02.973Z,14.40
2023-03-23T11:32:02.872Z,14.40
2023-03-23T11:33:02.899Z,14.40
2023-03-23T11:34:06.196Z,14.40
2023-03-23T11:35:13.972Z,14.40
2023-03-23T11:36:02.897Z,14.40
2023-03-23T11:37:02.882Z,14.50
2023-03-23T11:38:02.902Z,14.50
2023-03-23T11:39:02.939Z,14.50
2023-03-23T11:40:02.842Z,14.50
2023-03-23T11:41:02.857Z,14.50
2023-03-23T11:42:09.140Z,14.50
2023-03-23T11:43:02.679Z,14.50
2023-03-23T11:44:02.752Z,14.60
2023-03-23T11:45:02.751Z,14.60
2023-03-23T11:46:02.702Z,14.60
2023-03-23T11:47:02.676Z,14.60
2023-03-23T11:48:02.719Z,14.60
2023-03-23T11:49:03.028Z,14.60
2023-03-23T11:50:03.629Z,14.70
2023-03-23T11:51:03.658Z,14.70
2023-03-23T11:52:03.639Z,14.70
2023-03-23T11:53:03.616Z,14.70
2023-03-23T11:54:03.546Z,14.70
2023-03-23T11:55:03.532Z,14.70
2023-03-23T11:56:02.757Z,14.70
2023-03-23T11:57:03.623Z,14.70
2023-03-23T11:58:02.678Z,14.60
2023-03-23T11:59:02.656Z,14.60
2023-03-23T12:00:02.837Z,14.60
2023-03-23T12:01:02.840Z,14.60
2023-03-23T12:02:11.710Z,14.60
2023-03-23T12:03:02.803Z,14.60
2023-03-23T12:04:02.897Z,14.60
2023-03-23T12:05:02.821Z,14.60
2023-03-23T12:06:02.859Z,14.60
2023-03-23T12:07:02.909Z,14.60
2023-03-23T12:08:02.880Z,14.60
2023-03-23T12:09:02.866Z,14.70
2023-03-23T12:10:02.917Z,14.70
2023-03-23T12:11:03.218Z,14.70
2023-03-23T12:12:02.890Z,14.70
2023-03-23T12:13:02.805Z,14.70
2023-03-23T12:14:02.850Z,14.70
2023-03-23T12:15:02.813Z,14.80
2023-03-23T12:16:02.836Z,14.80
2023-03-23T12:17:02.918Z,14.90
2023-03-23T12:18:02.899Z,14.90
2023-03-23T12:19:03.039Z,15.00
2023-03-23T12:20:03.188Z,15.00
2023-03-23T12:21:03.252Z,15.00
2023-03-23T12:22:03.214Z,15.00
2023-03-23T12:23:03.086Z,15.00
2023-03-23T12:24:04.007Z,15.10
2023-03-23T12:25:03.169Z,15.10
2023-03-23T12:26:03.136Z,15.20
2023-03-23T12:27:03.144Z,15.20
2023-03-23T12:28:03.149Z,15.30
2023-03-23T12:29:03.129Z,15.40
2023-03-23T12:30:03.015Z,15.50
2023-03-23T12:31:02.990Z,15.60
2023-03-23T12:32:02.977Z,15.60
2023-03-23T12:33:03.003Z,15.70
2023-03-23T12:34:02.937Z,15.70
2023-03-23T12:35:02.827Z,15.80
2023-03-23T12:36:02.948Z,15.80
2023-03-23T12:37:02.906Z,15.80
2023-03-23T12:38:02.910Z,15.80
2023-03-23T12:39:02.861Z,15.70
2023-03-23T12:40:02.923Z,15.70
2023-03-23T12:41:03.011Z,15.70
2023-03-23T12:42:03.063Z,15.70
2023-03-23T12:43:02.972Z,15.70
2023-03-23T12:44:02.920Z,15.70
2023-03-23T12:45:02.860Z,15.70
2023-03-23T12:46:02.822Z,15.70
2023-03-23T12:47:02.848Z,15.70
2023-03-23T12:48:02.887Z,15.60
2023-03-23T12:49:02.921Z,15.60
2023-03-23T12:50:03.011Z,15.60
2023-03-23T12:51:03.070Z,15.60
2023-03-23T12:52:02.956Z,15.60
2023-03-23T12:53:02.963Z,15.60
2023-03-23T12:54:02.926Z,15.60